Aktualna pogoda na lotniskach (dane METAR)

 

EPGD - Gdansk/Rebiechow, Poland
Distance from station: ENE 44km
Updated: Sun, 18-Nov-2018 15:00 CET
Mostly Cloudy
Mostly Cloudy
 Wind from NE
Wiatr: NE 26 km/h
Temperatura: 6°C
Indeks Wychł.: 2°C
Punkt Rosy: 3°C
Wilgotność: 81%
Ciśnienie: 1027 hPa
Zachmurzenie: Mostly Cloudy
Widzialność: 10 km
Szczegóły zachm.: Few Clouds 244 m
Mostly Cloudy 610 m
2018/11/18 14:00 EPGD 181400Z 04014KT 9999 FEW008 BKN020 06/03 Q1027
EPSC - Szczecin/Golenio, Poland
Distance from station: WSW 205km
Updated: Sun, 18-Nov-2018 15:00 CET
Mostly Cloudy
Mostly Cloudy
 Wind from NNW
Wiatr: NNW 6 km/h
Temperatura: 4°C
Punkt Rosy: 4°C
Wilgotność: 100%
Ciśnienie: 1029 hPa
Zachmurzenie: Mostly Cloudy
Widzialność: 8 km
Szczegóły zachm.: Few Clouds 732 m
Mostly Cloudy 1280 m
2018/11/18 14:00 EPSC 181400Z 34003KT 8000 FEW024 BKN042 04/04 Q1029
 
EPPO - Poznan/Lawica, Poland
Distance from station: SSW 210km
Updated: Sun, 18-Nov-2018 15:00 CET
Light rain, Mist, Overcast
Light rain, Mist, Overcast
 Wind from NW
Wiatr: NW 7 km/h
Temperatura: 1°C
Indeks Wychł.: -2°C
Punkt Rosy: 1°C
Wilgotność: 100%
Ciśnienie: 1026 hPa
Ogólnie: Light rain, Mist
Zachmurzenie: Overcast
Widzialność: 2 km
Szczegóły zachm.: Overcast 61 m
2018/11/18 14:00 EPPO 181400Z 32004KT 1600 -RA BR OVC002 01/01 Q1026
EPLL - Lodz/Lublinek, Poland
Distance from station: SSE 296km
Updated: Sun, 18-Nov-2018 15:00 CET
Overcast
Overcast
 Wind from WSW
Wiatr: WSW 9 km/h
Temperatura: 0°C
Indeks Wychł.: -3°C
Punkt Rosy: -3°C
Wilgotność: 80%
Ciśnienie: 1025 hPa
Zachmurzenie: Overcast
Widzialność: 7 km
Szczegóły zachm.: Overcast 244 m
2018/11/18 14:00 EPLL 181400Z 24005KT 190V260 7000 OVC008 M00/M03 Q1025
 
EPWA - Warsaw/Okecie, Poland
Distance from station: SE 307km
Updated: Sun, 18-Nov-2018 15:00 CET
Light rain, Snow, Mist, Mostly cloudy
Light rain, Snow, Mist, Mostly cloudy
 Wind from WNW
Wiatr: WNW 7 km/h
Temperatura: 0°C
Indeks Wychł.: -3°C
Punkt Rosy: -1°C
Wilgotność: 93%
Ciśnienie: 1024 hPa
Ogólnie: Light rain, Snow, Mist
Zachmurzenie: Mostly Cloudy
Widzialność: 2 km
Szczegóły zachm.: Mostly Cloudy 91 m
2018/11/18 14:00 EPWA 181400Z 29004KT 1700 -RASN BR BKN003 M00/M01 Q1024 REFZRA R33/2///95 NOSIG
EPWR - Wroclaw/Strachow, Poland
Distance from station: S 352km
Updated: Sun, 18-Nov-2018 15:00 CET
Partly Cloudy
Partly Cloudy
 Wind from WNW
Wiatr: WNW 15 km/h
Temperatura: 0°C
Indeks Wychł.: -4°C
Punkt Rosy: -4°C
Wilgotność: 75%
Ciśnienie: 1026 hPa
Zachmurzenie: Partly Cloudy
Widzialność: 8 km
2018/11/18 14:00 EPWR 181400Z 30008KT 8000 NSC 00/M04 Q1026

Metar display script from Saratoga-Weather.org